Kezdőlap
METAR-TAF:

METAR-TAF

Repülőterek :

Szegedi repülőtér

Szeged, Magyarország

földrajzi szélesség: 46-15N, földrajzi hosszúság: 020-06E, magasság: 82 m

Jelenlegi meteorológiai megfigyelések

A jelentés 40 perccel ezelõtt készült, 09:45 UTC
Észak-északkeleti szél 10 kt
Hőmérséklet 8°C
Páratartalom 66%
Légköri nyomás 1031 hPa
Látótávolság 10 km, vagy több
felhőtlen 1500 m magasságban, és nincs gomolyfelhõ

METAR: LHUD 160945Z 02010KT CAVOK 08/02 Q1031

Idő: 11:25 (10:25 UTC)


TAF: hiányzik

Meteorológiai megfigyelések és előrejelzések több, mint 4000 repülőtéren (METAR és TAF jelentéseket).

A térképen piros és sárga pontok jelzik az elérhető meteorológiai állomásokat.

Mozgassa az egeret a pont fölött, hogy megjelenjen az állomás neve.

Azután kattintson az időjárási megfigyelések és előrejelzések megtekintéséhez.

A térkép megváltoztatása: kattintson a fekete keresztel jelölt zöld gombra ráközelítéshez, a vonallal jelölt zöld gombra távolításhoz, vagy a zöld nyilakra a szomszédos térképek eléréséhez.


METAR-TAF: